map of KEQY home
Great Circle Mapper logo
KEQY - Airport
Location
City:  Monroe, North Carolina, United States
Name:Charlotte-Monroe Executive Airport
ICAO:KEQY
FAA:EQY

Details
Type:Airport (Airfield)
Use:Public/Civil
Latitude:3501'03"N (35.017420)
Longitude:8037'19"W (-80.622050)
Datum:WGS 1984
Elevation:682 ft (208 m)
Runways:1
Longest:7001 × 100 ft (2134 × 30.5 m), paved

Time
Time Zone:UTC-5 (DST-4)
Local Time:

Weather
METAR:KEQY 231953Z AUTO 03008KT 10SM -RA BKN080 OVC095 14/10 A3028 RMK AO2 SLP260 P0001 T01440100

Related Locations
Nearby:
Farthest:MGV: 11544 mi / 18579 km
Margaret River, WA, AU

Find:

   beyond  
but within

Other Information
Maps:
NOTAMs:
Links:
Sources:

  
flag of United States
flag of North Carolina
  

Sectional Chart

Flight Planning
at skyvector.com

Satellite Image

Google Maps Satellite View

 

Copyright © 2004-2014 Karl L. Swartz. All rights reserved.
The Great Circle Mapper name and logo are trademarks of the Great Circle Mapper.
All other trademarks mentioned herein belong to their respective owners.
Please see credits for attibutions and further copyright information.

  Follow gcmap on Facebook Follow gcmap on Twitter

hCard Microformat

Geo Microformat